Terminal Aerodrome Forecast
Issued by NWS

Home | Current Version | Previous Version | Text Only | Print | Product List | Glossary On
Versions: 1 2 3 4 5 6 7 8 9 10 11 12 13 14 15 16 17
000
FTUS46 KPQR 180537
TAFONP
TAF
KONP 180537Z 1806/1906 15005KT P6SM BKN050
     FM181200 08005KT P6SM BKN050
     FM181900 13006KT P6SM SCT050 SCT250=

USA.gov is the U.S. government's official web portal to all federal, state and local government web resources and services.